< Cyclone 196712 1967 Season Cyclone 196714 >
Cyclone 196713 (GLENDA)
General InformationTrack Information on Google Maps || ResourceGoogle EarthGE AnimationAtom FeedGeoJSON
Detalied Best Track (Time Zone = UTC)
Year Month Day Hour Lat. Long. Pressure (hPa) Wind (kt) Class Image Chart
1967 3 26 05 -12.4 155.3 1000 0 0 -- --
1967 3 26 11 -12.1 155.7 1000 0 0 -- --
1967 3 26 23 -11.3 156.1 998 0 0 -- --
1967 3 27 11 -10.6 157.0 997 0 0 -- --
1967 3 27 23 -10.2 158.3 994 0 0 -- --
1967 3 28 11 -10.7 159.8 992 0 0 -- --
1967 3 28 14 -10.9 160.2 990 0 0 -- --
1967 3 28 17 -11.2 160.3 990 0 0 -- --
1967 3 28 23 -12.0 160.8 990 0 0 -- --
1967 3 29 11 -13.8 160.6 988 0 0 -- --
1967 3 29 23 -15.9 160.0 988 0 0 -- --
1967 3 30 11 -18.1 159.0 986 0 0 -- --
1967 3 30 23 -19.9 158.4 982 0 0 -- --
1967 3 31 11 -20.6 158.4 984 0 0 -- --
1967 3 31 23 -21.4 158.6 986 0 0 -- --
1967 4 1 05 -21.7 158.7 986 0 0 -- --
1967 4 1 11 -22.1 158.9 986 0 0 -- --
1967 4 1 23 -22.7 159.3 988 0 0 -- --
1967 4 2 11 -23.2 159.7 988 0 0 -- --
1967 4 2 23 -23.9 160.0 988 0 0 -- --
1967 4 3 11 -25.0 159.9 988 0 0 -- --
1967 4 3 23 -26.2 159.1 988 0 0 -- --
1967 4 4 11 -27.6 158.2 988 0 0 -- --
1967 4 4 23 -29.5 158.5 988 0 0 -- --
1967 4 5 11 -31.6 159.3 990 0 0 -- --
< Cyclone 196712 1967 Season Cyclone 196714 >

Help